createdAt,value
2022-12-17T00:00:34.932Z,-1.16
2022-12-17T00:03:20.180Z,-1.54
2022-12-17T00:06:05.475Z,-1.34
2022-12-17T00:08:50.909Z,-1.53
2022-12-17T00:11:37.354Z,-1.70
2022-12-17T00:14:22.685Z,-1.50
2022-12-17T00:17:07.545Z,-1.49
2022-12-17T00:19:52.495Z,-1.75
2022-12-17T00:22:41.871Z,-1.77
2022-12-17T00:25:27.157Z,-1.76
2022-12-17T00:28:12.247Z,-1.53
2022-12-17T00:30:57.390Z,-1.57
2022-12-17T00:33:42.365Z,-1.51
2022-12-17T00:36:27.786Z,-1.77
2022-12-17T00:39:12.798Z,-1.42
2022-12-17T00:41:57.986Z,-1.92
2022-12-17T00:44:42.765Z,-1.56
2022-12-17T00:47:41.374Z,-1.86
2022-12-17T00:50:27.300Z,-1.70
2022-12-17T00:53:12.762Z,-1.93
2022-12-17T00:55:58.778Z,-1.96
2022-12-17T00:58:43.734Z,-1.91
2022-12-17T01:01:28.961Z,-1.97
2022-12-17T01:04:14.223Z,-2.00
2022-12-17T01:06:59.281Z,-2.15
2022-12-17T01:09:44.186Z,-2.10
2022-12-17T01:12:29.360Z,-2.24
2022-12-17T01:15:14.601Z,-2.17
2022-12-17T01:17:59.838Z,-2.35
2022-12-17T01:20:45.256Z,-2.04
2022-12-17T01:23:30.096Z,-2.20
2022-12-17T01:26:30.587Z,-2.02
2022-12-17T01:29:17.130Z,-2.03
2022-12-17T01:32:02.122Z,-2.36
2022-12-17T01:34:47.584Z,-2.13
2022-12-17T01:37:32.408Z,-2.18
2022-12-17T01:40:17.244Z,-2.41
2022-12-17T01:43:04.670Z,-2.43
2022-12-17T01:45:57.780Z,-2.07
2022-12-17T01:48:49.692Z,-2.77
2022-12-17T01:51:36.372Z,-2.13
2022-12-17T01:54:21.745Z,-2.21
2022-12-17T01:57:07.142Z,-2.19
2022-12-17T02:00:21.178Z,-2.01
2022-12-17T02:03:06.459Z,-2.26
2022-12-17T02:06:13.847Z,-2.33
2022-12-17T02:09:11.198Z,-2.22
2022-12-17T02:12:21.074Z,-2.16
2022-12-17T02:15:21.751Z,-2.09
2022-12-17T02:18:12.253Z,-2.05
2022-12-17T02:21:05.205Z,-2.22
2022-12-17T02:24:13.308Z,-2.31
2022-12-17T02:27:02.855Z,-2.25
2022-12-17T02:29:52.806Z,-2.28
2022-12-17T02:32:38.873Z,-2.57
2022-12-17T02:35:32.569Z,-2.41
2022-12-17T02:38:17.704Z,-2.41
2022-12-17T02:41:05.521Z,-2.50
2022-12-17T02:43:52.662Z,-2.76
2022-12-17T02:46:39.720Z,-3.62
2022-12-17T02:49:24.582Z,-2.74
2022-12-17T02:52:10.030Z,-2.60
2022-12-17T02:54:54.953Z,-2.71
2022-12-17T02:57:43.633Z,-2.63
2022-12-17T03:00:29.539Z,-2.69
2022-12-17T03:03:14.442Z,-2.86
2022-12-17T03:05:59.662Z,-2.65
2022-12-17T03:08:44.545Z,-2.72
2022-12-17T03:11:29.455Z,-2.60
2022-12-17T03:14:14.365Z,-2.79
2022-12-17T03:16:59.607Z,-3.24
2022-12-17T03:19:44.943Z,-3.19
2022-12-17T03:22:29.691Z,-3.27
2022-12-17T03:25:14.744Z,-2.98
2022-12-17T03:27:59.711Z,-2.95
2022-12-17T03:30:48.882Z,-3.40
2022-12-17T03:33:35.240Z,-3.08
2022-12-17T03:36:20.558Z,-2.88
2022-12-17T03:39:05.487Z,-2.95
2022-12-17T03:41:50.368Z,-3.35
2022-12-17T03:44:35.501Z,-3.13
2022-12-17T03:47:20.344Z,-2.84
2022-12-17T03:50:05.163Z,-2.91
2022-12-17T03:52:50.215Z,-3.12
2022-12-17T03:55:35.092Z,-2.80
2022-12-17T03:58:20.162Z,-2.79
2022-12-17T04:01:05.176Z,-2.77
2022-12-17T04:03:50.525Z,-2.76
2022-12-17T04:06:35.813Z,-2.78
2022-12-17T04:09:20.871Z,-2.84
2022-12-17T04:12:05.811Z,-3.07
2022-12-17T04:14:50.761Z,-2.87
2022-12-17T04:17:35.776Z,-2.90
2022-12-17T04:20:37.960Z,-3.09
2022-12-17T04:23:23.171Z,-3.49
2022-12-17T04:26:08.106Z,-3.21
2022-12-17T04:28:53.093Z,-3.24
2022-12-17T04:31:38.376Z,-3.24
2022-12-17T04:34:23.389Z,-3.30
2022-12-17T04:37:08.369Z,-3.57
2022-12-17T04:39:53.135Z,-3.64
2022-12-17T04:42:38.049Z,-3.44
2022-12-17T04:45:23.668Z,-3.77
2022-12-17T04:48:19.142Z,-3.50
2022-12-17T04:51:03.994Z,-3.41
2022-12-17T04:53:48.838Z,-3.57
2022-12-17T04:56:33.778Z,-3.77
2022-12-17T04:59:18.884Z,-3.58
2022-12-17T05:02:04.028Z,-3.99
2022-12-17T05:04:49.131Z,-3.77
2022-12-17T05:07:34.447Z,-3.95
2022-12-17T05:10:19.385Z,-3.71
2022-12-17T05:13:04.217Z,-3.92
2022-12-17T05:15:53.156Z,-3.81
2022-12-17T05:18:38.380Z,-3.70
2022-12-17T05:21:23.208Z,-3.66
2022-12-17T05:24:08.115Z,-3.66
2022-12-17T05:26:53.352Z,-4.11
2022-12-17T05:29:39.398Z,-3.64
2022-12-17T05:32:24.330Z,-3.72
2022-12-17T05:35:09.828Z,-3.64
2022-12-17T05:37:54.553Z,-4.05
2022-12-17T05:40:41.307Z,-3.76
2022-12-17T05:43:30.793Z,-3.66
2022-12-17T05:46:18.809Z,-3.64
2022-12-17T05:49:03.917Z,-3.78
2022-12-17T05:51:49.042Z,-3.73
2022-12-17T05:54:34.057Z,-3.76
2022-12-17T05:57:19.170Z,-3.73
2022-12-17T06:00:04.442Z,-3.75
2022-12-17T06:02:49.390Z,-3.76
2022-12-17T06:05:34.606Z,-3.72
2022-12-17T06:08:24.620Z,-3.81
2022-12-17T06:11:09.925Z,-4.00
2022-12-17T06:13:54.956Z,-4.07
2022-12-17T06:16:39.976Z,-3.68
2022-12-17T06:19:25.516Z,-3.83
2022-12-17T06:22:10.344Z,-4.06
2022-12-17T06:24:55.243Z,-3.82
2022-12-17T06:27:40.237Z,-3.81
2022-12-17T06:30:25.729Z,-3.89
2022-12-17T06:33:10.789Z,-4.46
2022-12-17T06:35:55.719Z,-3.96
2022-12-17T06:38:40.626Z,-4.03
2022-12-17T06:41:25.449Z,-4.52
2022-12-17T06:44:10.315Z,-4.09
2022-12-17T06:46:55.343Z,-4.32
2022-12-17T06:49:41.307Z,-4.05
2022-12-17T06:52:26.152Z,-4.37
2022-12-17T06:55:11.373Z,-4.16
2022-12-17T06:57:56.346Z,-3.98
2022-12-17T07:00:42.217Z,-4.36
2022-12-17T07:03:30.558Z,-3.86
2022-12-17T07:06:19.292Z,-3.87
2022-12-17T07:09:05.180Z,-4.03
2022-12-17T07:11:50.013Z,-3.84
2022-12-17T07:14:35.295Z,-4.04
2022-12-17T07:17:20.222Z,-4.01
2022-12-17T07:20:05.358Z,-3.58
2022-12-17T07:22:50.528Z,-3.58
2022-12-17T07:25:35.323Z,-3.83
2022-12-17T07:28:20.241Z,-3.58
2022-12-17T07:31:18.962Z,-3.77
2022-12-17T07:34:04.482Z,-3.70
2022-12-17T07:36:52.114Z,-3.85
2022-12-17T07:39:37.504Z,-3.56
2022-12-17T07:42:22.854Z,-4.07
2022-12-17T07:45:07.770Z,-4.10
2022-12-17T07:47:52.995Z,-3.97
2022-12-17T07:50:38.054Z,-3.59
2022-12-17T07:53:24.052Z,-3.74
2022-12-17T07:56:09.961Z,-3.69
2022-12-17T07:58:55.202Z,-3.49
2022-12-17T08:01:40.357Z,-3.39
2022-12-17T08:04:26.066Z,-3.35
2022-12-17T08:07:14.023Z,-4.24
2022-12-17T08:09:59.901Z,-3.40
2022-12-17T08:12:45.058Z,-4.62
2022-12-17T08:15:30.416Z,-3.23
2022-12-17T08:18:26.426Z,-3.13
2022-12-17T08:21:12.805Z,-3.40
2022-12-17T08:23:58.211Z,-3.29
2022-12-17T08:26:47.792Z,-3.04
2022-12-17T08:29:33.649Z,-2.89
2022-12-17T08:32:18.629Z,-2.96
2022-12-17T08:35:03.832Z,-2.62
2022-12-17T08:37:49.284Z,-2.32
2022-12-17T08:40:34.607Z,-2.22
2022-12-17T08:43:19.718Z,-2.03
2022-12-17T08:46:06.717Z,-1.76
2022-12-17T08:48:52.018Z,-0.74
2022-12-17T08:51:37.399Z,-0.06
2022-12-17T08:54:22.929Z,0.85
2022-12-17T08:57:07.668Z,1.33
2022-12-17T08:59:52.486Z,0.90
2022-12-17T09:02:37.405Z,0.77
2022-12-17T09:05:23.367Z,1.44
2022-12-17T09:08:08.423Z,1.52
2022-12-17T09:10:53.381Z,1.55
2022-12-17T09:13:38.956Z,2.20
2022-12-17T09:16:24.490Z,1.37
2022-12-17T09:19:09.753Z,1.76
2022-12-17T09:21:55.525Z,1.13
2022-12-17T09:24:40.443Z,1.45
2022-12-17T09:27:25.926Z,1.21
2022-12-17T09:30:10.798Z,1.16
2022-12-17T09:32:55.939Z,0.46
2022-12-17T09:35:41.312Z,1.81
2022-12-17T09:38:30.171Z,3.09
2022-12-17T09:41:23.113Z,4.20
2022-12-17T09:44:26.902Z,4.07
2022-12-17T09:47:25.060Z,3.46
2022-12-17T09:50:11.382Z,3.71
2022-12-17T09:53:01.851Z,2.73
2022-12-17T09:56:10.171Z,3.23
2022-12-17T09:59:00.277Z,3.42
2022-12-17T10:01:50.571Z,3.80
2022-12-17T10:04:48.244Z,4.03
2022-12-17T10:07:39.212Z,3.87
2022-12-17T10:10:38.361Z,3.33
2022-12-17T10:13:46.607Z,3.65
2022-12-17T10:17:04.791Z,4.83
2022-12-17T10:19:58.613Z,6.71
2022-12-17T10:22:44.028Z,7.63
2022-12-17T10:25:37.186Z,8.92
2022-12-17T10:28:30.592Z,10.94
2022-12-17T10:31:16.664Z,11.45
2022-12-17T10:34:01.894Z,10.62
2022-12-17T10:36:48.354Z,12.25
2022-12-17T10:39:40.996Z,13.01
2022-12-17T10:42:46.911Z,11.14
2022-12-17T10:45:50.296Z,11.33
2022-12-17T10:49:11.198Z,9.73
2022-12-17T10:51:57.033Z,9.27
2022-12-17T10:54:49.577Z,8.72
2022-12-17T10:57:54.917Z,8.27
2022-12-17T11:00:44.362Z,7.92
2022-12-17T11:03:51.458Z,6.79
2022-12-17T11:06:48.962Z,6.34
2022-12-17T11:10:07.010Z,6.01
2022-12-17T11:13:09.804Z,5.90
2022-12-17T11:16:13.170Z,6.95
2022-12-17T11:18:58.034Z,8.62
2022-12-17T11:22:10.149Z,9.56
2022-12-17T11:25:09.252Z,11.40
2022-12-17T11:28:02.279Z,12.58
2022-12-17T11:30:47.719Z,12.60
2022-12-17T11:33:48.494Z,12.50
2022-12-17T11:36:45.988Z,10.11
2022-12-17T11:39:40.115Z,9.55
2022-12-17T11:42:43.525Z,10.51
2022-12-17T11:45:45.164Z,10.05
2022-12-17T11:48:54.067Z,7.37
2022-12-17T11:51:53.412Z,7.22
2022-12-17T11:54:54.457Z,6.16
2022-12-17T11:57:53.079Z,6.46
2022-12-17T12:00:41.159Z,6.40
2022-12-17T12:04:11.527Z,5.75
2022-12-17T12:07:26.230Z,4.85
2022-12-17T12:10:23.055Z,4.55
2022-12-17T12:13:48.709Z,4.02
2022-12-17T12:16:44.038Z,3.40
2022-12-17T12:19:49.115Z,2.88
2022-12-17T12:22:52.837Z,3.28
2022-12-17T12:26:26.373Z,2.83
2022-12-17T12:29:22.035Z,2.98
2022-12-17T12:32:25.674Z,3.09
2022-12-17T12:35:12.910Z,3.12
2022-12-17T12:37:58.288Z,2.93
2022-12-17T12:40:51.300Z,2.87
2022-12-17T12:43:50.005Z,2.79
2022-12-17T12:46:57.105Z,2.81
2022-12-17T12:50:10.145Z,2.49
2022-12-17T12:52:56.178Z,2.84
2022-12-17T12:55:41.512Z,1.99
2022-12-17T12:58:42.025Z,2.65
2022-12-17T13:01:27.737Z,2.54
2022-12-17T13:04:20.128Z,2.36
2022-12-17T13:06:57.159Z,2.41
2022-12-17T13:09:35.108Z,2.39
2022-12-17T13:12:04.695Z,2.41
2022-12-17T13:14:50.155Z,2.29
2022-12-17T13:17:16.886Z,2.44
2022-12-17T13:20:00.691Z,2.48
2022-12-17T13:22:27.110Z,2.61
2022-12-17T13:24:56.979Z,2.93
2022-12-17T13:27:35.900Z,3.27
2022-12-17T13:30:17.738Z,3.86
2022-12-17T13:33:08.551Z,4.06
2022-12-17T13:35:45.077Z,4.04
2022-12-17T13:38:31.643Z,3.16
2022-12-17T13:41:13.426Z,3.13
2022-12-17T13:43:49.804Z,2.91
2022-12-17T13:46:34.893Z,2.83
2022-12-17T13:49:06.037Z,2.75
2022-12-17T13:51:34.902Z,2.71
2022-12-17T13:54:04.231Z,2.65
2022-12-17T13:56:33.970Z,2.82
2022-12-17T13:59:09.236Z,2.61
2022-12-17T14:01:45.672Z,2.09
2022-12-17T14:04:21.064Z,2.37
2022-12-17T14:06:48.413Z,2.42
2022-12-17T14:09:20.010Z,1.99
2022-12-17T14:12:06.154Z,1.94
2022-12-17T14:14:36.617Z,2.06
2022-12-17T14:17:03.417Z,1.62
2022-12-17T14:19:32.134Z,1.65
2022-12-17T14:21:59.533Z,2.60
2022-12-17T14:24:29.439Z,3.37
2022-12-17T14:26:59.115Z,4.03
2022-12-17T14:29:31.407Z,3.63
2022-12-17T14:32:01.454Z,3.30
2022-12-17T14:34:29.983Z,2.75
2022-12-17T14:36:59.369Z,2.57
2022-12-17T14:39:34.677Z,2.11
2022-12-17T14:42:32.555Z,1.55
2022-12-17T14:45:01.966Z,1.59
2022-12-17T14:47:35.515Z,1.59
2022-12-17T14:50:05.189Z,1.44
2022-12-17T14:52:44.752Z,1.28
2022-12-17T14:55:25.420Z,1.16
2022-12-17T14:57:52.987Z,0.96
2022-12-17T15:00:20.207Z,0.89
2022-12-17T15:02:54.560Z,0.75
2022-12-17T15:05:21.333Z,0.61
2022-12-17T15:07:48.061Z,0.61
2022-12-17T15:10:19.701Z,0.58
2022-12-17T15:12:46.565Z,-0.07
2022-12-17T15:15:16.357Z,0.48
2022-12-17T15:17:43.201Z,0.47
2022-12-17T15:20:17.004Z,0.30
2022-12-17T15:22:43.608Z,0.29
2022-12-17T15:25:13.529Z,0.19
2022-12-17T15:27:40.079Z,0.10
2022-12-17T15:30:07.665Z,-0.05
2022-12-17T15:32:34.601Z,-0.40
2022-12-17T15:35:01.112Z,-0.20
2022-12-17T15:37:27.582Z,-0.13
2022-12-17T15:39:54.149Z,-0.25
2022-12-17T15:42:39.293Z,-0.20
2022-12-17T15:45:06.322Z,-0.30
2022-12-17T15:47:32.789Z,-0.90
2022-12-17T15:49:59.318Z,-0.25
2022-12-17T15:52:25.883Z,-0.26
2022-12-17T15:54:52.909Z,-0.29
2022-12-17T15:57:19.416Z,-0.60
2022-12-17T15:59:45.963Z,-0.70
2022-12-17T16:02:13.272Z,-0.36
2022-12-17T16:04:40.945Z,-0.44
2022-12-17T16:07:07.491Z,-0.86
2022-12-17T16:09:34.015Z,-0.54
2022-12-17T16:12:00.551Z,-0.32
2022-12-17T16:14:27.093Z,-0.47
2022-12-17T16:16:53.565Z,-0.60
2022-12-17T16:19:23.043Z,-0.51
2022-12-17T16:21:49.534Z,-0.71
2022-12-17T16:24:16.160Z,-0.72
2022-12-17T16:26:42.794Z,-1.01
2022-12-17T16:29:09.469Z,-0.75
2022-12-17T16:31:36.060Z,-0.97
2022-12-17T16:34:02.914Z,-1.13
2022-12-17T16:36:29.537Z,-1.36
2022-12-17T16:38:55.978Z,-0.98
2022-12-17T16:41:23.066Z,-1.38
2022-12-17T16:43:49.999Z,-0.91
2022-12-17T16:46:27.365Z,-1.02
2022-12-17T16:48:55.224Z,-1.15
2022-12-17T16:51:28.585Z,-1.02
2022-12-17T16:53:56.970Z,-1.00
2022-12-17T16:56:27.852Z,-1.11
2022-12-17T16:58:55.539Z,-1.10
2022-12-17T17:01:25.198Z,-1.32
2022-12-17T17:03:51.952Z,-1.25
2022-12-17T17:06:19.403Z,-1.44
2022-12-17T17:08:46.778Z,-1.28
2022-12-17T17:11:17.962Z,-1.53
2022-12-17T17:13:45.102Z,-1.38
2022-12-17T17:16:12.102Z,-1.27
2022-12-17T17:18:39.613Z,-1.39
2022-12-17T17:21:35.916Z,-1.42
2022-12-17T17:24:07.226Z,-1.38
2022-12-17T17:26:34.995Z,-1.39
2022-12-17T17:29:02.172Z,-1.73
2022-12-17T17:31:53.467Z,-1.77
2022-12-17T17:34:15.800Z,-1.57
2022-12-17T17:36:43.075Z,-1.85
2022-12-17T17:39:09.705Z,-1.58
2022-12-17T17:41:37.070Z,-1.97
2022-12-17T17:44:09.222Z,-1.84
2022-12-17T17:46:36.396Z,-1.61
2022-12-17T17:49:06.286Z,-1.60
2022-12-17T17:52:07.782Z,-1.67
2022-12-17T17:54:22.659Z,-1.56
2022-12-17T17:56:49.248Z,-1.54
2022-12-17T17:59:20.272Z,-1.67
2022-12-17T18:01:49.745Z,-1.66
2022-12-17T18:04:19.609Z,-1.82
2022-12-17T18:07:15.982Z,-1.84
2022-12-17T18:09:33.774Z,-1.79
2022-12-17T18:12:20.376Z,-3.17
2022-12-17T18:15:12.771Z,-1.80
2022-12-17T18:17:33.284Z,-1.84
2022-12-17T18:19:59.756Z,-2.00
2022-12-17T18:22:26.361Z,-2.12
2022-12-17T18:24:52.822Z,-1.95
2022-12-17T18:27:19.417Z,-2.37
2022-12-17T18:29:48.253Z,-2.36
2022-12-17T18:32:14.826Z,-2.01
2022-12-17T18:34:43.058Z,-1.99
2022-12-17T18:37:09.552Z,-1.94
2022-12-17T18:39:36.156Z,-2.11
2022-12-17T18:42:21.330Z,-1.94
2022-12-17T18:44:47.772Z,-2.11
2022-12-17T18:47:14.484Z,-1.93
2022-12-17T18:49:41.074Z,-2.48
2022-12-17T18:52:11.715Z,-2.35
2022-12-17T18:54:41.380Z,-2.05
2022-12-17T18:57:07.860Z,-2.32
2022-12-17T18:59:34.730Z,-2.46
2022-12-17T19:02:01.834Z,-2.29
2022-12-17T19:04:28.469Z,-2.12
2022-12-17T19:06:55.428Z,-2.13
2022-12-17T19:09:23.815Z,-2.29
2022-12-17T19:11:51.715Z,-2.30
2022-12-17T19:14:18.581Z,-2.28
2022-12-17T19:16:45.435Z,-2.66
2022-12-17T19:19:12.884Z,-2.33
2022-12-17T19:21:39.761Z,-2.29
2022-12-17T19:24:08.717Z,-2.25
2022-12-17T19:26:35.529Z,-2.56
2022-12-17T19:29:02.537Z,-2.30
2022-12-17T19:31:31.525Z,-2.42
2022-12-17T19:34:00.323Z,-3.19
2022-12-17T19:36:32.525Z,-2.78
2022-12-17T19:39:01.410Z,-2.45
2022-12-17T19:41:29.690Z,-2.63
2022-12-17T19:43:59.056Z,-2.55
2022-12-17T19:46:26.788Z,-2.44
2022-12-17T19:48:57.388Z,-2.46
2022-12-17T19:51:25.564Z,-2.54
2022-12-17T19:53:52.015Z,-2.39
2022-12-17T19:56:30.452Z,-2.29
2022-12-17T19:59:02.213Z,-2.36
2022-12-17T20:01:34.090Z,-2.40
2022-12-17T20:04:00.896Z,-2.48
2022-12-17T20:06:30.635Z,-2.57
2022-12-17T20:09:01.835Z,-2.68
2022-12-17T20:11:34.939Z,-2.55
2022-12-17T20:14:13.215Z,-2.65
2022-12-17T20:16:42.902Z,-2.89
2022-12-17T20:19:13.801Z,-3.18
2022-12-17T20:21:40.671Z,-2.68
2022-12-17T20:24:08.044Z,-2.76
2022-12-17T20:26:34.581Z,-3.06
2022-12-17T20:29:01.392Z,-2.79
2022-12-17T20:31:28.466Z,-2.79
2022-12-17T20:33:55.114Z,-2.80
2022-12-17T20:36:23.285Z,-2.82
2022-12-17T20:38:49.990Z,-2.80
2022-12-17T20:41:19.313Z,-2.85
2022-12-17T20:43:46.549Z,-2.90
2022-12-17T20:46:13.925Z,-3.07
2022-12-17T20:48:42.986Z,-2.90
2022-12-17T20:51:17.014Z,-2.95
2022-12-17T20:53:44.880Z,-2.90
2022-12-17T20:56:14.459Z,-3.25
2022-12-17T20:58:42.928Z,-3.38
2022-12-17T21:01:19.107Z,-2.97
2022-12-17T21:03:47.012Z,-2.96
2022-12-17T21:06:19.078Z,-2.98
2022-12-17T21:08:50.233Z,-2.91
2022-12-17T21:11:23.500Z,-2.90
2022-12-17T21:13:50.524Z,-3.10
2022-12-17T21:16:22.737Z,-3.05
2022-12-17T21:18:52.841Z,-3.01
2022-12-17T21:21:21.690Z,-3.36
2022-12-17T21:23:49.315Z,-3.16
2022-12-17T21:26:27.913Z,-3.17
2022-12-17T21:28:59.571Z,-3.55
2022-12-17T21:31:41.078Z,-3.41
2022-12-17T21:34:12.535Z,-3.17
2022-12-17T21:36:39.959Z,-3.35
2022-12-17T21:39:09.379Z,-3.23
2022-12-17T21:41:38.494Z,-3.25
2022-12-17T21:44:07.884Z,-3.30
2022-12-17T21:46:35.264Z,-3.26
2022-12-17T21:49:03.180Z,-3.75
2022-12-17T21:51:31.193Z,-3.20
2022-12-17T21:54:00.301Z,-3.41
2022-12-17T21:56:27.390Z,-3.25
2022-12-17T21:58:59.933Z,-3.32
2022-12-17T22:01:32.138Z,-3.31
2022-12-17T22:04:01.950Z,-3.54
2022-12-17T22:06:35.066Z,-3.46
2022-12-17T22:09:30.403Z,-3.59
2022-12-17T22:12:19.929Z,-3.64
2022-12-17T22:14:46.774Z,-3.42
2022-12-17T22:17:13.381Z,-3.33
2022-12-17T22:19:40.026Z,-3.52
2022-12-17T22:22:06.511Z,-3.41
2022-12-17T22:24:35.962Z,-3.41
2022-12-17T22:27:03.358Z,-3.49
2022-12-17T22:29:48.466Z,-3.50
2022-12-17T22:32:33.474Z,-3.50
2022-12-17T22:36:05.590Z,-3.49
2022-12-17T22:41:04.164Z,-3.71
2022-12-17T22:44:32.049Z,-3.42
2022-12-17T22:44:51.547Z,-3.51
2022-12-17T22:46:18.391Z,-3.68
2022-12-17T22:48:45.079Z,-3.54
2022-12-17T22:51:15.245Z,-3.70
2022-12-17T22:53:44.972Z,-3.47
2022-12-17T22:56:21.031Z,-3.55
2022-12-17T22:58:59.442Z,-3.52
2022-12-17T23:01:26.695Z,-3.60
2022-12-17T23:03:57.926Z,-3.78
2022-12-17T23:06:24.950Z,-3.58
2022-12-17T23:08:51.844Z,-3.57
2022-12-17T23:11:21.199Z,-3.48
2022-12-17T23:13:47.761Z,-3.57
2022-12-17T23:16:14.906Z,-3.48
2022-12-17T23:18:42.957Z,-3.79
2022-12-17T23:21:12.352Z,-3.61
2022-12-17T23:23:39.724Z,-3.61
2022-12-17T23:26:12.750Z,-3.57
2022-12-17T23:28:39.522Z,-3.87
2022-12-17T23:31:12.299Z,-3.74
2022-12-17T23:33:39.727Z,-4.02
2022-12-17T23:36:12.399Z,-3.84
2022-12-17T23:38:41.020Z,-3.79
2022-12-17T23:41:13.830Z,-3.83
2022-12-17T23:43:40.721Z,-3.90
2022-12-17T23:46:08.637Z,-3.76
2022-12-17T23:48:45.298Z,-3.86
2022-12-17T23:51:14.168Z,-4.18
2022-12-17T23:53:41.781Z,-3.97
2022-12-17T23:56:12.339Z,-4.12
2022-12-17T23:58:40.416Z,-4.39
